Time;durP1;ratioP1;P1;durP2;ratioP2;P2;SDS_P1;SDS_P2;PMS_P1;PMS_P2;Temp;Humidity;BMP_temperature;BMP_pressure;BME280_temperature;BME280_humidity;BME280_pressure;Samples;Min_cycle;Max_cycle;Signal;HPM_P1;HPM_P2
2022/05/25 00:01:23;;;;;;;2.75;1.70;;;;;;;16.50;80.58;95262.59;4981957;28;20223;-84
2022/05/25 00:03:49;;;;;;;2.22;1.40;;;;;;;16.39;81.50;95267.72;4992678;28;20659;-83
2022/05/25 00:06:16;;;;;;;1.73;1.50;;;;;;;16.41;81.60;95263.91;4980503;28;20219;-82
2022/05/25 00:08:44;;;;;;;1.83;1.60;;;;;;;16.46;82.05;95256.25;4983022;28;20196;-83
2022/05/25 00:11:11;;;;;;;3.45;1.48;;;;;;;16.52;81.75;95254.59;4984352;28;20215;-81
2022/05/25 00:13:39;;;;;;;2.50;1.60;;;;;;;16.43;83.38;95261.88;4990241;28;20207;-81
2022/05/25 00:16:06;;;;;;;1.58;1.40;;;;;;;16.47;83.30;95251.84;4984387;28;20278;-82
2022/05/25 00:18:32;;;;;;;1.83;1.70;;;;;;;16.33;83.94;95248.63;4982523;28;20695;-82
2022/05/25 00:20:58;;;;;;;1.77;1.52;;;;;;;16.36;83.65;95245.56;4982709;28;20264;-82
2022/05/25 00:23:25;;;;;;;2.85;1.50;;;;;;;16.40;83.42;95244.13;4989162;28;20211;-82
2022/05/25 00:25:51;;;;;;;1.92;1.60;;;;;;;16.34;84.36;95232.03;4988306;28;20223;-82
2022/05/25 00:28:18;;;;;;;2.00;1.50;;;;;;;16.33;84.60;95233.06;4981797;28;20192;-82
2022/05/25 00:30:47;;;;;;;1.75;1.58;;;;;;;16.34;85.77;95232.03;4987608;28;20262;-83
2022/05/25 00:33:14;;;;;;;2.85;1.60;;;;;;;16.39;84.62;95237.34;4987380;28;20252;-82
2022/05/25 00:35:42;;;;;;;2.00;1.67;;;;;;;16.44;83.71;95240.09;4990798;28;20636;-82
2022/05/25 00:38:09;;;;;;;2.20;1.55;;;;;;;16.50;82.80;95252.19;4981265;28;20324;-82
2022/05/25 00:40:38;;;;;;;3.05;1.80;;;;;;;16.55;82.36;95236.72;4980107;28;20204;-82
2022/05/25 00:43:05;;;;;;;2.10;1.83;;;;;;;16.41;83.29;95227.53;4977810;28;20626;-83
2022/05/25 00:45:36;;;;;;;4.88;2.15;;;;;;;16.42;83.32;95223.91;4985635;28;20239;-83
2022/05/25 00:48:06;;;;;;;1.80;1.70;;;;;;;16.48;83.57;95223.03;4985375;28;20203;-82
2022/05/25 00:51:12;;;;;;;1.90;1.73;;;;;;;16.50;83.61;95215.81;4986420;28;20211;-81
2022/05/25 00:53:22;;;;;;;1.60;1.40;;;;;;;16.55;83.02;95223.72;4981714;28;20221;-83
2022/05/25 00:55:50;;;;;;;1.88;1.60;;;;;;;16.59;82.84;95227.47;4984793;28;20270;-83
2022/05/25 00:58:16;;;;;;;1.92;1.60;;;;;;;16.66;82.45;95226.63;4986945;28;20207;-83
2022/05/25 01:00:43;;;;;;;2.13;1.70;;;;;;;16.70;81.98;95225.16;4977572;28;20200;-83
2022/05/25 01:03:13;;;;;;;2.45;1.40;;;;;;;16.71;81.55;95226.75;4984617;28;20707;-82
2022/05/25 01:05:47;;;;;;;1.67;1.58;;;;;;;16.73;81.55;95232.53;4985084;28;20674;-83
2022/05/25 01:08:28;;;;;;;1.60;1.50;;;;;;;16.73;81.69;95230.72;4986301;28;20207;-83
2022/05/25 01:11:08;;;;;;;1.40;1.30;;;;;;;16.74;82.08;95254.91;4983417;28;20222;-83
2022/05/25 01:13:42;;;;;;;3.72;1.40;;;;;;;16.73;81.83;95245.50;4982300;28;20581;-83
2022/05/25 01:16:20;;;;;;;3.10;1.45;;;;;;;16.65;81.88;95259.63;4978270;28;20238;-83
2022/05/25 01:18:55;;;;;;;3.47;1.60;;;;;;;16.56;82.02;95264.28;4982912;28;20703;-84
2022/05/25 01:21:26;;;;;;;2.40;1.70;;;;;;;16.54;81.93;95273.34;4978048;28;20219;-83
2022/05/25 01:24:29;;;;;;;1.52;1.42;;;;;;;16.45;82.22;95265.06;4985482;28;20297;-83
2022/05/25 01:27:16;;;;;;;2.47;1.58;;;;;;;16.41;82.20;95265.72;4911561;29;20289;-82
2022/05/25 01:29:53;;;;;;;1.88;1.60;;;;;;;16.39;82.80;95267.72;4968701;28;20208;-85
2022/05/25 01:32:29;;;;;;;1.48;1.38;;;;;;;16.37;82.79;95267.16;4983744;28;20662;-81
2022/05/25 01:35:04;;;;;;;2.58;1.48;;;;;;;16.30;83.45;95261.28;4976649;28;20231;-83
2022/05/25 01:37:38;;;;;;;1.50;1.40;;;;;;;16.30;83.39;95264.66;4984537;28;20245;-83
2022/05/25 01:40:15;;;;;;;2.35;1.50;;;;;;;16.30;83.58;95269.84;4984978;28;20721;-83
2022/05/25 01:42:49;;;;;;;1.65;1.50;;;;;;;16.25;84.21;95264.53;4984498;28;20223;-82
2022/05/25 01:45:19;;;;;;;1.45;1.35;;;;;;;16.25;85.00;95269.72;4984467;28;20671;-83
2022/05/25 01:47:51;;;;;;;3.08;1.65;;;;;;;16.32;84.24;95267.03;4984091;28;20203;-82
2022/05/25 01:50:23;;;;;;;1.90;1.40;;;;;;;16.33;84.21;95273.81;4985485;28;20663;-83
2022/05/25 01:52:54;;;;;;;1.50;1.40;;;;;;;16.37;84.00;95270.56;4984398;28;20223;-82
2022/05/25 01:55:25;;;;;;;2.30;1.70;;;;;;;16.34;84.45;95278.81;4984419;28;20243;-83
2022/05/25 01:57:57;;;;;;;1.48;1.38;;;;;;;16.32;84.90;95280.03;4981526;28;20204;-83
2022/05/25 02:00:33;;;;;;;2.15;1.60;;;;;;;16.30;86.35;95276.84;4980204;28;20203;-82
2022/05/25 02:05:55;;;;;;;2.80;1.67;;;;;;;16.34;86.99;95280.63;4983740;28;20411;-82
2022/05/25 02:08:33;;;;;;;2.78;1.88;;;;;;;16.34;86.49;95281.41;4979359;28;20678;-83
2022/05/25 02:11:08;;;;;;;1.70;1.60;;;;;;;16.34;86.28;95283.22;4983942;28;20250;-82
2022/05/25 02:13:50;;;;;;;2.15;1.80;;;;;;;16.28;87.14;95277.06;4985230;28;20257;-82
2022/05/25 02:16:29;;;;;;;2.50;1.63;;;;;;;16.30;87.45;95271.66;4978357;28;20227;-81
2022/05/25 02:19:02;;;;;;;2.35;1.80;;;;;;;16.24;87.91;95271.53;4976147;28;20204;-83
2022/05/25 02:21:32;;;;;;;2.10;1.90;;;;;;;16.22;88.49;95276.13;4981668;28;20786;-83
2022/05/25 02:24:06;;;;;;;3.45;2.00;;;;;;;16.23;88.54;95284.72;4979006;28;20251;-81
2022/05/25 02:26:36;;;;;;;3.15;2.10;;;;;;;16.25;88.24;95290.50;4977183;28;20305;-81
2022/05/25 02:29:08;;;;;;;2.53;2.33;;;;;;;16.24;89.13;95297.50;4983434;28;20667;-82
2022/05/25 02:31:40;;;;;;;3.08;2.25;;;;;;;16.22;89.00;95289.13;4987378;28;20219;-83
2022/05/25 02:34:11;;;;;;;2.38;2.05;;;;;;;16.23;89.30;95295.13;4979059;28;20227;-82
2022/05/25 02:36:39;;;;;;;2.53;2.33;;;;;;;16.20;89.89;95293.75;4979720;28;20307;-82
2022/05/25 02:39:07;;;;;;;2.60;2.13;;;;;;;16.21;89.12;95295.34;4975256;28;20621;-82
2022/05/25 02:41:36;;;;;;;3.22;2.42;;;;;;;16.16;90.17;95297.03;4990959;28;20672;-82
2022/05/25 02:44:04;;;;;;;2.83;2.50;;;;;;;16.18;89.92;95295.75;4988994;28;20208;-83
2022/05/25 02:46:30;;;;;;;2.80;2.60;;;;;;;16.20;89.45;95291.16;4986591;28;20263;-82
2022/05/25 02:48:58;;;;;;;2.67;2.38;;;;;;;16.21;89.64;95290.13;4986939;28;20254;-82
2022/05/25 02:51:25;;;;;;;5.78;2.67;;;;;;;16.21;89.85;95297.94;4991390;28;20215;-81
2022/05/25 02:53:51;;;;;;;2.47;2.28;;;;;;;16.24;90.04;95307.88;4986717;28;20549;-83
2022/05/25 02:56:18;;;;;;;2.70;2.50;;;;;;;16.24;90.32;95314.88;4983708;28;20254;-84
2022/05/25 02:58:44;;;;;;;2.50;2.30;;;;;;;16.23;90.66;95313.31;4992633;28;20196;-81
2022/05/25 03:01:11;;;;;;;2.92;2.72;;;;;;;16.21;90.36;95323.13;4985291;28;20208;-83
2022/05/25 03:03:38;;;;;;;2.92;2.65;;;;;;;16.22;90.52;95317.69;4991483;28;20207;-82
2022/05/25 03:06:07;;;;;;;2.80;2.60;;;;;;;16.21;91.31;95321.31;4983595;28;20223;-81
2022/05/25 03:08:35;;;;;;;4.18;2.75;;;;;;;16.20;93.13;95322.31;4990821;28;20250;-83
2022/05/25 03:11:02;;;;;;;2.60;2.40;;;;;;;16.26;91.41;95327.66;4986938;28;20283;-82
2022/05/25 03:13:29;;;;;;;2.70;2.50;;;;;;;16.28;91.73;95321.25;4990274;28;20560;-82
2022/05/25 03:15:57;;;;;;;2.90;2.60;;;;;;;16.24;91.67;95318.28;4987978;28;20227;-81
2022/05/25 03:18:24;;;;;;;3.42;2.90;;;;;;;16.27;91.11;95327.44;4989551;28;20199;-81
2022/05/25 03:20:50;;;;;;;3.00;2.80;;;;;;;16.22;91.64;95329.91;4985082;28;20266;-82
2022/05/25 03:23:18;;;;;;;5.40;3.15;;;;;;;16.21;91.19;95328.31;4987999;28;20301;-83
2022/05/25 03:25:45;;;;;;;4.88;3.03;;;;;;;16.23;91.80;95334.09;4989369;28;20235;-83
2022/05/25 03:28:11;;;;;;;3.38;2.60;;;;;;;16.26;91.36;95333.66;4982746;28;20195;-82
2022/05/25 03:30:38;;;;;;;2.95;2.47;;;;;;;16.29;91.18;95335.03;4978666;28;20758;-82
2022/05/25 03:33:04;;;;;;;2.65;2.45;;;;;;;16.28;91.71;95336.81;4985882;28;20226;-81
2022/05/25 03:35:31;;;;;;;6.07;2.78;;;;;;;16.29;91.68;95332.44;4990156;28;20258;-80
2022/05/25 03:37:58;;;;;;;2.90;2.65;;;;;;;16.26;91.60;95340.66;4986340;28;20258;-82
2022/05/25 03:40:26;;;;;;;4.10;2.78;;;;;;;16.24;91.36;95344.25;4990720;28;20200;-81
2022/05/25 03:42:53;;;;;;;2.83;2.35;;;;;;;16.23;92.06;95347.88;4985698;28;20737;-82
2022/05/25 03:45:19;;;;;;;2.65;2.45;;;;;;;16.21;92.07;95352.47;4990182;28;20230;-82
2022/05/25 03:47:46;;;;;;;3.38;2.63;;;;;;;16.20;91.83;95347.50;4986048;28;20223;-81
2022/05/25 03:50:13;;;;;;;3.47;2.50;;;;;;;16.21;92.84;95357.69;4990135;28;20215;-81
2022/05/25 03:52:40;;;;;;;2.55;2.35;;;;;;;16.22;92.68;95358.47;4985283;28;20314;-83
2022/05/25 03:55:08;;;;;;;3.58;2.45;;;;;;;16.26;92.34;95358.84;4982883;28;20228;-81
2022/05/25 03:57:35;;;;;;;3.20;2.75;;;;;;;16.26;92.69;95361.44;4985930;28;20199;-82
2022/05/25 04:00:02;;;;;;;3.30;3.00;;;;;;;16.25;92.69;95363.25;4991381;28;20200;-80
2022/05/25 04:02:28;;;;;;;2.88;2.67;;;;;;;16.28;92.97;95362.03;4985643;28;20277;-83
2022/05/25 04:05:08;;;;;;;3.30;2.85;;;;;;;16.27;93.55;95368.22;4986709;28;20231;-83
2022/05/25 04:07:35;;;;;;;4.80;2.92;;;;;;;16.31;93.50;95377.19;4986092;28;20310;-82
2022/05/25 04:10:03;;;;;;;3.63;3.30;;;;;;;16.31;93.27;95374.56;4991342;28;20287;-81
2022/05/25 04:12:30;;;;;;;3.40;3.10;;;;;;;16.26;93.94;95377.03;4985961;28;20247;-82
2022/05/25 04:14:58;;;;;;;3.78;3.38;;;;;;;16.28;93.87;95375.00;4988895;28;20220;-82
2022/05/25 04:17:24;;;;;;;5.65;3.53;;;;;;;16.22;93.86;95377.44;4982151;28;20204;-81
2022/05/25 04:19:51;;;;;;;4.22;3.92;;;;;;;16.19;94.18;95379.69;4976454;28;20259;-82
2022/05/25 04:22:17;;;;;;;4.50;4.10;;;;;;;16.16;94.26;95387.94;4980536;28;20307;-82
2022/05/25 04:24:44;;;;;;;12.40;11.10;;;;;;;16.15;94.00;95381.16;4978809;28;20235;-82
2022/05/25 04:27:10;;;;;;;10.95;9.85;;;;;;;16.14;94.44;95390.75;4981935;28;20216;-81
2022/05/25 04:29:37;;;;;;;5.40;4.95;;;;;;;16.04;95.30;95395.63;4981828;28;20568;-82
2022/05/25 04:32:06;;;;;;;5.25;4.38;;;;;;;16.03;96.60;95393.25;4976793;28;20230;-83
2022/05/25 04:34:33;;;;;;;4.80;4.30;;;;;;;16.02;98.19;95396.84;4981104;28;20197;-82
2022/05/25 04:37:48;;;;;;;4.95;4.50;;;;;;;16.08;96.64;95403.78;4979401;28;20200;-83
2022/05/25 04:39:46;;;;;;;7.50;4.63;;;;;;;16.05;98.51;95405.00;4971178;28;20204;-81
2022/05/25 04:42:13;;;;;;;5.03;4.60;;;;;;;16.13;97.38;95399.53;4977418;28;20624;-82
2022/05/25 04:44:39;;;;;;;5.65;4.63;;;;;;;16.05;98.76;95406.81;4978460;28;20227;-82
2022/05/25 04:47:08;;;;;;;4.97;4.45;;;;;;;16.06;97.56;95413.59;4972776;28;20220;-82
2022/05/25 04:49:35;;;;;;;5.03;4.53;;;;;;;16.05;98.36;95414.59;4973473;28;20251;-82
2022/05/25 04:52:02;;;;;;;5.18;4.68;;;;;;;16.06;96.21;95416.97;4973084;28;20617;-83
2022/05/25 04:54:29;;;;;;;5.13;4.70;;;;;;;16.04;97.03;95418.19;4973227;28;20254;-82
2022/05/25 04:59:39;;;;;;;14.52;8.60;;;;;;;16.04;97.62;95419.00;4971112;28;20312;-82
2022/05/25 05:02:07;;;;;;;6.28;5.65;;;;;;;16.07;96.48;95423.75;4973101;28;20220;-82
2022/05/25 05:04:34;;;;;;;6.00;5.40;;;;;;;16.06;96.62;95429.16;4972562;28;20214;-81
2022/05/25 05:07:00;;;;;;;7.45;6.68;;;;;;;15.92;98.15;95425.91;4972868;28;20251;-82
2022/05/25 05:09:26;;;;;;;6.53;5.55;;;;;;;15.92;97.39;95441.50;4973624;28;20211;-81
2022/05/25 05:11:53;;;;;;;5.97;5.38;;;;;;;15.87;98.33;95442.13;4972914;28;20255;-83
2022/05/25 05:14:19;;;;;;;6.65;5.93;;;;;;;15.82;98.16;95443.75;4972733;28;20303;-83
2022/05/25 05:16:46;;;;;;;5.90;5.30;;;;;;;15.85;97.61;95453.72;4973156;28;20625;-81
2022/05/25 05:19:13;;;;;;;6.55;5.25;;;;;;;15.92;96.47;95457.06;4972898;28;20192;-81
2022/05/25 05:21:40;;;;;;;5.72;4.78;;;;;;;15.87;97.90;95462.91;4965972;28;20768;-81
2022/05/25 05:24:07;;;;;;;6.03;5.53;;;;;;;15.92;97.49;95472.66;4965177;28;20200;-83
2022/05/25 05:26:34;;;;;;;5.60;5.10;;;;;;;15.94;96.74;95477.63;4972368;28;20862;-82
2022/05/25 05:29:00;;;;;;;6.18;5.57;;;;;;;15.92;96.92;95487.44;4973217;28;20223;-83
2022/05/25 05:31:27;;;;;;;6.45;5.82;;;;;;;15.94;96.32;95488.81;4972692;28;20267;-83
2022/05/25 05:33:53;;;;;;;10.07;6.43;;;;;;;15.98;96.24;95492.56;4973193;28;20200;-82
2022/05/25 05:36:24;;;;;;;6.53;5.93;;;;;;;15.97;97.01;95501.34;4972504;28;20759;-82
2022/05/25 05:38:58;;;;;;;6.25;5.65;;;;;;;15.97;96.53;95501.34;4973122;28;20688;-81
2022/05/25 05:41:30;;;;;;;6.60;5.90;;;;;;;15.93;96.94;95505.41;4972521;28;20279;-83
2022/05/25 05:43:57;;;;;;;6.97;6.32;;;;;;;15.95;96.77;95516.38;4972996;28;20267;-81
2022/05/25 05:46:23;;;;;;;7.18;6.47;;;;;;;15.99;96.36;95516.72;4972464;28;20649;-83
2022/05/25 05:48:50;;;;;;;7.50;6.80;;;;;;;16.04;95.95;95520.28;4972889;28;20200;-82
2022/05/25 05:51:18;;;;;;;7.15;6.45;;;;;;;16.04;96.10;95529.88;4972374;28;20208;-81
2022/05/25 05:53:46;;;;;;;6.50;5.95;;;;;;;16.04;96.60;95519.50;4973275;28;20212;-83
2022/05/25 05:56:14;;;;;;;6.20;5.55;;;;;;;16.00;97.12;95534.69;4972089;28;20239;-82
2022/05/25 05:58:40;;;;;;;6.88;6.38;;;;;;;15.99;97.26;95540.91;4972587;28;20204;-83
2022/05/25 06:01:06;;;;;;;8.38;6.50;;;;;;;16.01;97.22;95546.69;4972200;28;20672;-81
2022/05/25 06:03:33;;;;;;;7.00;6.40;;;;;;;16.01;96.35;95548.47;4972319;28;20207;-82
2022/05/25 06:05:59;;;;;;;6.85;6.15;;;;;;;16.02;97.50;95550.88;4971837;28;20232;-82
2022/05/25 06:08:27;;;;;;;10.02;6.78;;;;;;;15.96;98.10;95559.50;4971889;28;20258;-81
2022/05/25 06:10:56;;;;;;;9.65;6.55;;;;;;;16.02;97.25;95565.66;4972553;28;20214;-83
2022/05/25 06:13:22;;;;;;;7.30;6.70;;;;;;;16.02;95.46;95568.25;4971897;28;20224;-81
2022/05/25 06:21:21;;;;;;;6.80;6.20;;;;;;;15.96;94.31;95575.09;4953200;28;20236;-83
2022/05/25 06:23:48;;;;;;;6.95;5.75;;;;;;;15.93;95.58;95582.50;4953661;28;20255;-82
2022/05/25 06:26:15;;;;;;;6.75;6.10;;;;;;;15.93;94.74;95580.72;4952321;28;20300;-81
2022/05/25 06:28:42;;;;;;;6.13;5.60;;;;;;;15.95;94.67;95586.50;4953347;28;20596;-83
2022/05/25 06:31:09;;;;;;;5.97;5.38;;;;;;;15.89;95.73;95577.72;4952745;28;20255;-83
2022/05/25 06:33:37;;;;;;;5.63;5.13;;;;;;;15.98;94.98;95582.66;4953132;28;20584;-84
2022/05/25 06:36:14;;;;;;;5.55;5.05;;;;;;;15.99;96.60;95592.84;4952110;28;20233;-82
2022/05/25 06:38:40;;;;;;;6.18;5.68;;;;;;;16.03;96.74;95598.41;4952783;28;20272;-83
2022/05/25 06:41:07;;;;;;;6.40;5.80;;;;;;;15.97;97.30;95615.63;4951920;28;20639;-81
2022/05/25 06:43:35;;;;;;;5.95;5.45;;;;;;;16.02;96.77;95615.00;4952750;28;20213;-81
2022/05/25 06:46:01;;;;;;;5.72;5.18;;;;;;;16.02;97.28;95620.19;4951794;28;21007;-83
2022/05/25 06:48:28;;;;;;;6.38;5.78;;;;;;;16.01;98.08;95627.19;4952168;28;20307;-82
2022/05/25 06:50:54;;;;;;;5.28;4.78;;;;;;;16.08;95.53;95632.34;4952086;28;20366;-83
2022/05/25 06:53:20;;;;;;;5.45;4.95;;;;;;;16.08;95.76;95632.34;4952580;28;20228;-83
2022/05/25 06:55:47;;;;;;;5.38;4.65;;;;;;;16.12;93.85;95636.94;4951989;28;20233;-82
2022/05/25 06:58:14;;;;;;;4.82;4.43;;;;;;;16.12;93.90;95631.72;4952436;28;20252;-83
2022/05/25 07:00:42;;;;;;;5.07;4.68;;;;;;;16.10;96.47;95635.53;4952203;28;20623;-81
2022/05/25 07:03:09;;;;;;;3.55;3.25;;;;;;;16.15;92.39;95633.13;4952540;28;20252;-83
2022/05/25 07:05:35;;;;;;;4.40;3.05;;;;;;;16.10;91.48;95638.94;4965527;28;20228;-82
2022/05/25 07:08:02;;;;;;;4.00;2.63;;;;;;;16.09;91.00;95639.13;4971561;28;20655;-83
2022/05/25 07:10:29;;;;;;;2.97;2.60;;;;;;;16.12;91.56;95643.91;4970961;28;20751;-83
2022/05/25 07:12:55;;;;;;;3.95;2.40;;;;;;;16.17;90.70;95638.88;4971611;28;20224;-81
2022/05/25 07:15:22;;;;;;;2.55;2.00;;;;;;;16.23;89.51;95644.03;4971510;28;20716;-83
2022/05/25 07:17:49;;;;;;;2.20;2.00;;;;;;;16.27;87.22;95646.22;4971518;28;20204;-81
2022/05/25 07:20:16;;;;;;;1.88;1.77;;;;;;;16.34;87.48;95646.97;4971072;28;20200;-83
2022/05/25 07:22:42;;;;;;;2.95;2.20;;;;;;;16.33;86.67;95655.78;4971389;28;20251;-81
2022/05/25 07:25:09;;;;;;;2.10;1.90;;;;;;;16.28;87.61;95655.59;4971270;28;20224;-81
2022/05/25 07:27:35;;;;;;;2.40;2.20;;;;;;;16.28;86.89;95661.59;4974584;28;20626;-82
2022/05/25 07:30:02;;;;;;;2.35;2.20;;;;;;;16.26;88.29;95661.00;4974937;28;20204;-80
2022/05/25 07:32:29;;;;;;;2.90;1.80;;;;;;;16.31;87.20;95658.59;4975025;28;20223;-84
2022/05/25 07:35:02;;;;;;;2.30;2.10;;;;;;;16.37;86.16;95654.34;4974783;28;20251;-81
2022/05/25 07:37:33;;;;;;;2.30;2.10;;;;;;;16.34;85.89;95658.16;4974778;28;20211;-83
2022/05/25 07:40:02;;;;;;;3.45;2.20;;;;;;;16.43;85.41;95658.69;4975015;28;20216;-80
2022/05/25 07:42:31;;;;;;;2.90;2.60;;;;;;;16.44;85.91;95661.09;4974505;28;20678;-82
2022/05/25 07:44:59;;;;;;;3.03;2.55;;;;;;;16.40;84.80;95656.50;4974315;28;20270;-81
2022/05/25 07:47:27;;;;;;;2.80;2.08;;;;;;;16.37;84.02;95667.31;4974508;28;20302;-81
2022/05/25 07:49:54;;;;;;;2.30;2.00;;;;;;;16.33;83.53;95664.38;4973872;28;20207;-80
2022/05/25 07:52:24;;;;;;;2.67;2.30;;;;;;;16.39;84.73;95657.53;4974055;28;20251;-83
2022/05/25 07:54:51;;;;;;;3.47;2.05;;;;;;;16.44;83.23;95666.28;4974542;28;20287;-81
2022/05/25 07:57:17;;;;;;;2.40;2.20;;;;;;;16.49;83.58;95665.66;4974330;28;20208;-82
2022/05/25 07:59:44;;;;;;;3.78;2.10;;;;;;;16.58;83.36;95672.19;4974724;28;20208;-82
2022/05/25 08:07:56;;;;;;;2.40;2.20;;;;;;;16.52;80.30;95662.66;4950066;28;20239;-83
2022/05/25 08:10:25;;;;;;;3.28;2.25;;;;;;;16.48;83.18;95670.06;4973804;28;20616;-83
2022/05/25 08:12:55;;;;;;;4.72;2.40;;;;;;;16.43;83.24;95669.88;4973996;28;20244;-82
2022/05/25 08:15:23;;;;;;;2.58;2.38;;;;;;;16.43;80.89;95676.88;4974085;28;20228;-84
2022/05/25 08:17:49;;;;;;;3.78;2.50;;;;;;;16.37;82.98;95675.91;4974486;28;20259;-83
2022/05/25 08:20:17;;;;;;;2.45;2.25;;;;;;;16.43;81.90;95680.28;4973722;28;20255;-81
2022/05/25 08:22:43;;;;;;;2.95;2.10;;;;;;;16.48;79.53;95683.06;4973940;28;20594;-82
2022/05/25 08:25:14;;;;;;;2.03;1.85;;;;;;;16.56;78.12;95677.59;4973551;28;20227;-83
2022/05/25 08:27:40;;;;;;;2.25;1.85;;;;;;;16.69;78.97;95675.94;4973627;28;20731;-82
2022/05/25 08:30:09;;;;;;;2.53;1.95;;;;;;;16.66;79.37;95676.34;4974522;28;20208;-83
2022/05/25 08:32:35;;;;;;;2.40;2.20;;;;;;;16.77;78.84;95683.47;4974148;28;20255;-82
2022/05/25 08:35:02;;;;;;;2.53;2.30;;;;;;;16.89;79.77;95687.78;4973458;28;20223;-83
2022/05/25 08:37:28;;;;;;;2.50;2.30;;;;;;;17.03;79.60;95701.47;4973311;28;20839;-82
2022/05/25 08:39:55;;;;;;;2.22;2.00;;;;;;;17.07;80.24;95702.63;4973851;28;20208;-81
2022/05/25 08:42:26;;;;;;;2.17;2.08;;;;;;;17.13;78.61;95703.56;4973693;28;20232;-83
2022/05/25 08:44:56;;;;;;;2.35;1.90;;;;;;;17.21;78.22;95704.09;4973640;28;20228;-81
2022/05/25 08:47:23;;;;;;;2.30;1.90;;;;;;;17.22;77.97;95710.09;4974076;28;20200;-82
2022/05/25 08:49:51;;;;;;;1.73;1.50;;;;;;;17.32;77.58;95709.63;4974250;28;20282;-83
2022/05/25 08:52:23;;;;;;;1.83;1.70;;;;;;;17.48;74.23;95709.84;4973360;28;20298;-82
2022/05/25 08:54:50;;;;;;;1.38;1.27;;;;;;;17.61;73.89;95706.31;4973495;28;20311;-80
2022/05/25 08:57:21;;;;;;;1.60;1.40;;;;;;;17.66;71.33;95703.88;4973987;28;20672;-82
2022/05/25 08:59:53;;;;;;;1.20;1.20;;;;;;;17.80;72.50;95718.34;4973651;28;20275;-81
2022/05/25 09:02:25;;;;;;;1.60;1.50;;;;;;;17.85;75.84;95718.47;4973001;28;20635;-82
2022/05/25 09:04:59;;;;;;;1.70;1.27;;;;;;;17.86;74.90;95727.88;4972309;28;20236;-81
2022/05/25 09:07:33;;;;;;;1.40;1.30;;;;;;;17.84;72.92;95721.31;4973246;28;20271;-81
2022/05/25 09:09:59;;;;;;;1.42;1.33;;;;;;;17.76;73.15;95713.78;4973014;28;20211;-82
2022/05/25 09:12:35;;;;;;;1.42;1.17;;;;;;;17.75;72.65;95718.19;4972915;28;20223;-82
2022/05/25 09:15:07;;;;;;;1.40;1.30;;;;;;;17.66;71.22;95711.69;4972613;28;20254;-83
2022/05/25 09:17:40;;;;;;;1.98;1.13;;;;;;;17.56;72.02;95712.16;4972672;28;20279;-84
2022/05/25 09:20:09;;;;;;;1.20;1.10;;;;;;;17.63;72.51;95717.28;4972585;28;20205;-82
2022/05/25 09:22:36;;;;;;;1.92;1.35;;;;;;;17.60;75.73;95721.13;4972880;28;20271;-82
2022/05/25 09:25:06;;;;;;;2.90;1.35;;;;;;;17.53;73.34;95723.00;4972428;28;20337;-82
2022/05/25 09:27:39;;;;;;;1.88;1.42;;;;;;;17.52;73.88;95726.59;4972588;28;20561;-82
2022/05/25 09:30:08;;;;;;;1.83;1.40;;;;;;;17.46;76.43;95722.28;4972748;28;20204;-81
2022/05/25 09:32:45;;;;;;;1.55;1.25;;;;;;;17.56;75.30;95726.97;4972739;28;20282;-81
2022/05/25 09:35:15;;;;;;;1.52;1.30;;;;;;;17.61;75.37;95734.94;4972190;28;20258;-82
2022/05/25 09:37:49;;;;;;;1.55;1.40;;;;;;;17.65;72.94;95722.31;4972744;28;20596;-82
2022/05/25 09:40:21;;;;;;;1.42;1.33;;;;;;;17.63;75.87;95722.50;4972199;28;20687;-84
2022/05/25 09:42:51;;;;;;;3.33;1.30;;;;;;;17.73;73.68;95722.81;4972343;28;20236;-82
2022/05/25 09:45:19;;;;;;;1.40;1.30;;;;;;;17.79;73.54;95719.34;4972448;28;20595;-83
2022/05/25 09:47:48;;;;;;;2.53;1.00;;;;;;;17.89;73.90;95721.44;4971860;28;20341;-81
2022/05/25 09:50:25;;;;;;;1.23;1.13;;;;;;;18.05;72.44;95720.84;4971843;28;20208;-83
2022/05/25 09:52:54;;;;;;;1.10;1.00;;;;;;;18.19;72.75;95719.66;4972081;28;20250;-81
2022/05/25 09:55:25;;;;;;;1.73;1.08;;;;;;;18.37;69.66;95718.03;4972062;28;20235;-82
2022/05/25 09:57:57;;;;;;;1.20;1.10;;;;;;;18.37;67.88;95723.22;4972208;28;20255;-81
2022/05/25 10:00:40;;;;;;;1.17;1.10;;;;;;;18.34;65.48;95732.28;4972162;28;20894;-81
2022/05/25 10:03:10;;;;;;;1.38;1.08;;;;;;;18.35;66.89;95733.88;4972725;28;20224;-82
2022/05/25 10:05:52;;;;;;;1.27;1.17;;;;;;;18.45;66.62;95733.38;4973745;28;20310;-82
2022/05/25 10:08:26;;;;;;;1.40;1.10;;;;;;;18.68;68.07;95732.66;4972080;28;20224;-83
2022/05/25 10:10:56;;;;;;;1.45;1.10;;;;;;;18.86;67.29;95735.97;4971799;28;20807;-82
2022/05/25 10:13:26;;;;;;;1.00;0.90;;;;;;;18.93;64.50;95723.63;4972015;28;20228;-81
2022/05/25 10:15:54;;;;;;;2.17;1.00;;;;;;;19.22;62.45;95721.97;4971168;28;20315;-82
2022/05/25 10:18:35;;;;;;;1.02;0.80;;;;;;;19.15;61.80;95723.09;4972208;28;20208;-81
2022/05/25 10:21:03;;;;;;;1.55;1.00;;;;;;;19.13;62.92;95735.56;4971293;28;20255;-83
2022/05/25 10:23:29;;;;;;;1.67;1.10;;;;;;;19.36;60.89;95729.56;4972069;28;20243;-83
2022/05/25 10:25:58;;;;;;;1.20;1.10;;;;;;;19.46;61.18;95740.22;4971408;28;20228;-83
2022/05/25 10:28:29;;;;;;;0.90;0.90;;;;;;;19.21;63.23;95736.03;4971944;28;20224;-81
2022/05/25 10:36:49;;;;;;;1.30;0.95;;;;;;;19.80;61.26;95730.81;4969845;28;20752;-82
2022/05/25 10:39:21;;;;;;;1.30;1.20;;;;;;;20.38;61.56;95725.44;4970873;28;20226;-81
2022/05/25 10:42:15;;;;;;;0.90;0.90;;;;;;;20.63;59.78;95725.84;4971274;28;20232;-83
2022/05/25 10:44:51;;;;;;;1.70;0.85;;;;;;;20.83;57.36;95725.41;4971069;28;20793;-82
2022/05/25 10:47:29;;;;;;;1.20;1.10;;;;;;;20.45;54.38;95725.28;4971824;28;20208;-81
2022/05/25 10:49:56;;;;;;;0.90;0.90;;;;;;;20.18;55.75;95725.03;4971832;28;20224;-82
2022/05/25 10:52:28;;;;;;;1.40;1.00;;;;;;;20.02;57.25;95718.69;4971429;28;20279;-82
2022/05/25 10:54:56;;;;;;;2.40;0.98;;;;;;;19.94;58.06;95729.53;4971350;28;20281;-83
2022/05/25 10:58:00;;;;;;;1.13;1.02;;;;;;;19.80;55.64;95733.41;4971726;28;20805;-82
2022/05/25 11:00:36;;;;;;;1.00;1.00;;;;;;;19.93;57.05;95733.94;4969800;28;20670;-82
2022/05/25 11:03:48;;;;;;;0.88;0.88;;;;;;;19.82;59.20;95739.97;4975126;28;20596;-83
2022/05/25 11:06:35;;;;;;;0.93;0.90;;;;;;;19.74;57.52;95732.50;4975189;28;20291;-83
2022/05/25 11:09:12;;;;;;;1.27;0.90;;;;;;;19.53;57.77;95739.13;4974724;28;20228;-80
2022/05/25 11:11:45;;;;;;;1.05;0.88;;;;;;;19.53;58.50;95735.72;4974517;28;20228;-83
2022/05/25 11:14:32;;;;;;;1.58;0.88;;;;;;;19.36;56.56;95737.41;4975268;28;20204;-81
2022/05/25 11:17:05;;;;;;;1.20;0.90;;;;;;;19.28;56.78;95726.25;4975036;28;20231;-82
2022/05/25 11:20:00;;;;;;;1.50;1.00;;;;;;;19.20;56.88;95731.84;4974805;28;20684;-82
2022/05/25 11:22:36;;;;;;;0.93;0.93;;;;;;;19.14;55.81;95739.78;4974874;28;20896;-82
2022/05/25 11:25:22;;;;;;;0.90;0.90;;;;;;;19.06;55.18;95738.28;4974572;28;20231;-84
2022/05/25 11:28:04;;;;;;;1.35;1.25;;;;;;;19.08;54.41;95731.03;4974750;28;20290;-81
2022/05/25 11:30:39;;;;;;;0.70;0.70;;;;;;;19.08;55.76;95736.25;4973610;28;20208;-82
2022/05/25 11:33:23;;;;;;;1.25;0.88;;;;;;;19.26;56.00;95736.13;4975068;28;20247;-83
2022/05/25 11:36:01;;;;;;;3.00;0.90;;;;;;;19.25;53.27;95737.16;4975100;28;20315;-80
2022/05/25 11:38:44;;;;;;;0.90;0.80;;;;;;;19.25;53.89;95739.75;4975205;28;20226;-83
2022/05/25 11:41:23;;;;;;;0.95;0.75;;;;;;;19.14;53.00;95742.38;4974374;28;20595;-82
2022/05/25 11:44:03;;;;;;;0.80;0.80;;;;;;;19.14;52.05;95737.97;4974808;28;20199;-82
2022/05/25 11:46:40;;;;;;;0.98;0.80;;;;;;;19.22;52.47;95742.84;4974595;28;20235;-81
2022/05/25 11:49:46;;;;;;;1.90;0.80;;;;;;;19.10;52.39;95738.63;4974920;28;20224;-83
2022/05/25 11:52:45;;;;;;;1.95;0.80;;;;;;;19.14;54.44;95734.56;4974500;28;20847;-83
2022/05/25 11:55:22;;;;;;;0.85;0.85;;;;;;;19.14;54.38;95737.97;4973907;28;20231;-83
2022/05/25 11:58:00;;;;;;;1.65;0.90;;;;;;;19.26;54.53;95738.75;4974177;28;20247;-83
2022/05/25 12:00:52;;;;;;;1.33;0.90;;;;;;;19.40;54.23;95733.31;4973779;28;20624;-82
2022/05/25 12:03:38;;;;;;;0.95;0.90;;;;;;;19.44;52.74;95737.84;4967268;28;20275;-82
2022/05/25 12:06:20;;;;;;;1.92;0.90;;;;;;;19.60;52.41;95734.59;4973509;28;20239;-82
2022/05/25 12:09:07;;;;;;;1.17;1.08;;;;;;;19.60;53.17;95739.00;4974167;28;20220;-81
2022/05/25 12:11:40;;;;;;;1.50;1.00;;;;;;;19.67;53.98;95737.06;4973367;28;20564;-82
2022/05/25 12:14:27;;;;;;;1.73;0.98;;;;;;;19.85;52.31;95749.97;4974290;28;20581;-81